createdAt,value
2018-08-28T00:01:55.618Z,4.67
2018-08-28T00:04:30.304Z,4.80
2018-08-28T00:07:04.924Z,5.15
2018-08-28T00:09:39.589Z,5.13
2018-08-28T00:12:14.109Z,5.30
2018-08-28T00:14:48.751Z,5.43
2018-08-28T00:17:23.466Z,4.80
2018-08-28T00:19:58.095Z,5.33
2018-08-28T00:22:32.717Z,5.10
2018-08-28T00:25:07.228Z,5.73
2018-08-28T00:27:41.896Z,5.43
2018-08-28T00:30:16.423Z,5.47
2018-08-28T00:32:51.020Z,5.93
2018-08-28T00:35:25.588Z,5.60
2018-08-28T00:38:00.344Z,5.73
2018-08-28T00:40:34.876Z,5.23
2018-08-28T00:43:09.425Z,5.07
2018-08-28T00:45:44.045Z,5.80
2018-08-28T00:48:18.592Z,5.17
2018-08-28T00:50:53.262Z,6.23
2018-08-28T00:53:27.850Z,6.63
2018-08-28T00:56:02.524Z,6.83
2018-08-28T00:58:37.518Z,6.23
2018-08-28T01:01:12.116Z,5.37
2018-08-28T01:03:46.661Z,5.70
2018-08-28T01:06:21.244Z,5.77
2018-08-28T01:08:56.101Z,5.90
2018-08-28T01:11:30.618Z,6.00
2018-08-28T01:14:05.188Z,5.90
2018-08-28T01:16:39.841Z,5.43
2018-08-28T01:19:14.375Z,4.87
2018-08-28T01:21:49.019Z,6.20
2018-08-28T01:27:23.048Z,6.43
2018-08-28T01:29:57.564Z,6.30
2018-08-28T01:32:32.159Z,5.73
2018-08-28T01:35:06.896Z,6.33
2018-08-28T01:37:41.936Z,6.87
2018-08-28T01:40:16.375Z,6.47
2018-08-28T01:42:51.270Z,6.03
2018-08-28T01:45:26.041Z,6.20
2018-08-28T01:48:00.703Z,7.13
2018-08-28T01:50:35.318Z,6.12
2018-08-28T01:53:10.021Z,6.23
2018-08-28T01:55:44.972Z,6.70
2018-08-28T01:58:19.540Z,7.67
2018-08-28T02:00:54.154Z,6.67
2018-08-28T02:03:28.789Z,7.10
2018-08-28T02:06:03.413Z,6.55
2018-08-28T02:08:37.932Z,7.10
2018-08-28T02:11:12.469Z,5.80
2018-08-28T02:14:06.229Z,6.43
2018-08-28T02:16:40.889Z,6.43
2018-08-28T02:19:15.599Z,7.77
2018-08-28T02:21:50.253Z,6.43
2018-08-28T02:24:24.720Z,6.67
2018-08-28T02:26:59.240Z,7.37
2018-08-28T02:29:33.800Z,6.37
2018-08-28T02:32:08.485Z,6.30
2018-08-28T02:34:43.210Z,6.53
2018-08-28T02:37:17.815Z,6.83
2018-08-28T02:39:52.260Z,6.50
2018-08-28T02:42:27.013Z,7.07
2018-08-28T02:45:01.629Z,6.67
2018-08-28T02:47:36.121Z,7.20
2018-08-28T02:50:10.786Z,7.23
2018-08-28T02:52:45.433Z,6.33
2018-08-28T02:55:20.216Z,7.97
2018-08-28T02:57:55.072Z,7.03
2018-08-28T03:00:29.657Z,7.77
2018-08-28T03:03:04.214Z,6.67
2018-08-28T03:05:38.881Z,7.57
2018-08-28T03:08:13.518Z,6.87
2018-08-28T03:10:48.081Z,8.35
2018-08-28T03:13:22.678Z,7.50
2018-08-28T03:15:57.205Z,6.73
2018-08-28T03:18:31.865Z,6.80
2018-08-28T03:21:06.389Z,8.30
2018-08-28T03:23:41.350Z,8.00
2018-08-28T03:26:15.913Z,7.55
2018-08-28T03:28:50.436Z,8.07
2018-08-28T03:31:25.105Z,9.43
2018-08-28T03:34:00.188Z,8.43
2018-08-28T03:36:34.660Z,7.33
2018-08-28T03:39:09.057Z,8.93
2018-08-28T03:41:43.709Z,7.67
2018-08-28T03:44:18.494Z,7.67
2018-08-28T03:46:53.829Z,8.43
2018-08-28T03:49:28.329Z,7.67
2018-08-28T03:52:03.049Z,9.10
2018-08-28T03:54:37.548Z,8.77
2018-08-28T03:57:12.044Z,8.80
2018-08-28T03:59:47.145Z,9.23
2018-08-28T04:02:21.794Z,8.73
2018-08-28T04:04:56.374Z,9.80
2018-08-28T04:07:31.009Z,9.20
2018-08-28T04:10:05.893Z,9.53
2018-08-28T04:12:40.638Z,9.67
2018-08-28T04:15:15.427Z,8.57
2018-08-28T04:17:51.066Z,8.93
2018-08-28T04:20:25.705Z,9.63
2018-08-28T04:23:00.542Z,9.90
2018-08-28T04:25:35.270Z,8.93
2018-08-28T04:28:10.239Z,9.60
2018-08-28T04:30:44.929Z,9.23
2018-08-28T04:33:19.432Z,8.93
2018-08-28T04:35:53.865Z,9.47
2018-08-28T04:38:28.429Z,10.67
2018-08-28T04:41:03.135Z,8.83
2018-08-28T04:43:37.810Z,8.83
2018-08-28T04:46:12.416Z,9.27
2018-08-28T04:48:47.021Z,9.27
2018-08-28T04:51:21.388Z,8.50
2018-08-28T04:53:55.932Z,9.63
2018-08-28T04:56:30.793Z,9.17
2018-08-28T04:59:05.334Z,9.73
2018-08-28T05:01:39.909Z,9.33
2018-08-28T05:04:14.437Z,9.33
2018-08-28T05:06:48.977Z,9.17
2018-08-28T05:09:23.549Z,8.83
2018-08-28T05:11:58.457Z,8.63
2018-08-28T05:14:33.086Z,8.37
2018-08-28T05:17:07.523Z,7.57
2018-08-28T05:19:41.982Z,8.40
2018-08-28T05:22:16.642Z,7.50
2018-08-28T05:24:51.708Z,8.00
2018-08-28T05:27:26.502Z,8.53
2018-08-28T05:30:01.057Z,8.37
2018-08-28T05:32:35.508Z,7.87
2018-08-28T05:35:10.230Z,9.00
2018-08-28T05:37:44.849Z,8.63
2018-08-28T05:40:19.334Z,8.33
2018-08-28T05:42:53.957Z,8.53
2018-08-28T05:45:28.625Z,9.10
2018-08-28T05:48:03.097Z,9.10
2018-08-28T05:50:37.707Z,8.23
2018-08-28T05:53:12.341Z,7.33
2018-08-28T05:55:47.012Z,7.53
2018-08-28T05:58:21.597Z,6.10
2018-08-28T06:00:56.309Z,7.37
2018-08-28T06:03:30.970Z,6.40
2018-08-28T06:06:05.581Z,6.63
2018-08-28T06:08:40.301Z,6.73
2018-08-28T06:11:14.832Z,5.70
2018-08-28T06:13:49.419Z,6.53
2018-08-28T06:16:24.149Z,6.47
2018-08-28T06:18:58.869Z,7.03
2018-08-28T06:21:33.509Z,6.60
2018-08-28T06:24:07.995Z,6.50
2018-08-28T06:26:42.753Z,6.43
2018-08-28T06:29:17.671Z,6.27
2018-08-28T06:31:52.342Z,5.65
2018-08-28T06:34:26.953Z,6.70
2018-08-28T06:37:01.585Z,5.33
2018-08-28T06:39:36.226Z,5.77
2018-08-28T06:42:10.742Z,5.17
2018-08-28T06:44:45.463Z,5.20
2018-08-28T06:47:20.104Z,5.03
2018-08-28T06:49:54.753Z,4.93
2018-08-28T06:52:29.101Z,4.57
2018-08-28T06:55:03.492Z,4.90
2018-08-28T06:57:38.076Z,4.50
2018-08-28T07:00:12.618Z,4.20
2018-08-28T07:02:47.267Z,4.00
2018-08-28T07:05:21.816Z,4.40
2018-08-28T07:07:56.325Z,4.30
2018-08-28T07:10:30.949Z,4.37
2018-08-28T07:13:05.514Z,4.90
2018-08-28T07:15:40.161Z,4.23
2018-08-28T07:18:14.829Z,4.60
2018-08-28T07:20:49.423Z,4.57
2018-08-28T07:23:24.149Z,4.80
2018-08-28T07:26:01.558Z,4.80
2018-08-28T07:28:36.116Z,4.47
2018-08-28T07:31:10.740Z,4.40
2018-08-28T07:33:45.385Z,4.57
2018-08-28T07:36:20.090Z,4.40
2018-08-28T07:38:54.672Z,4.63
2018-08-28T07:41:29.129Z,4.63
2018-08-28T07:44:03.840Z,5.00
2018-08-28T07:46:38.525Z,5.37
2018-08-28T07:49:13.141Z,5.73
2018-08-28T07:51:47.717Z,5.30
2018-08-28T07:54:22.377Z,4.63
2018-08-28T07:56:57.094Z,4.83
2018-08-28T07:59:32.064Z,5.93
2018-08-28T08:02:06.961Z,5.90
2018-08-28T08:04:41.528Z,5.17
2018-08-28T08:07:16.098Z,6.23
2018-08-28T08:09:50.637Z,5.27
2018-08-28T08:12:25.109Z,4.97
2018-08-28T08:14:59.641Z,4.80
2018-08-28T08:17:34.435Z,5.60
2018-08-28T08:20:08.905Z,5.43
2018-08-28T08:22:43.641Z,4.67
2018-08-28T08:25:18.342Z,5.17
2018-08-28T08:27:53.023Z,5.17
2018-08-28T08:30:27.526Z,5.03
2018-08-28T08:33:02.695Z,5.03
2018-08-28T08:35:37.265Z,4.37
2018-08-28T08:38:11.901Z,4.97
2018-08-28T08:40:46.494Z,4.50
2018-08-28T08:43:21.122Z,5.57
2018-08-28T08:45:55.815Z,5.33
2018-08-28T08:48:30.813Z,5.40
2018-08-28T08:51:05.521Z,5.43
2018-08-28T08:53:40.035Z,4.93
2018-08-28T08:56:14.729Z,5.37
2018-08-28T08:58:49.421Z,4.93
2018-08-28T09:01:24.032Z,5.20
2018-08-28T09:03:58.832Z,5.03
2018-08-28T09:06:33.482Z,5.60
2018-08-28T09:09:08.345Z,5.73
2018-08-28T09:11:43.081Z,5.97
2018-08-28T09:14:19.548Z,5.73
2018-08-28T09:16:54.096Z,6.43
2018-08-28T09:19:28.897Z,5.40
2018-08-28T09:22:03.721Z,5.90
2018-08-28T09:24:38.299Z,5.77
2018-08-28T09:27:12.920Z,6.20
2018-08-28T09:29:47.379Z,5.53
2018-08-28T09:32:21.877Z,5.37
2018-08-28T09:34:56.405Z,6.13
2018-08-28T09:37:31.373Z,5.57
2018-08-28T09:40:27.981Z,6.33
2018-08-28T09:46:02.516Z,6.23
2018-08-28T09:48:37.197Z,6.53
2018-08-28T09:51:11.741Z,6.33
2018-08-28T09:53:54.249Z,6.57
2018-08-28T09:56:28.826Z,6.93
2018-08-28T09:59:03.599Z,6.17
2018-08-28T10:01:43.548Z,6.17
2018-08-28T10:04:18.216Z,6.23
2018-08-28T10:06:52.896Z,5.70
2018-08-28T10:09:27.650Z,6.07
2018-08-28T10:12:02.221Z,6.50
2018-08-28T10:14:36.755Z,6.50
2018-08-28T10:17:11.279Z,6.60
2018-08-28T10:19:46.062Z,6.60
2018-08-28T10:22:20.828Z,6.27
2018-08-28T10:24:55.365Z,6.50
2018-08-28T10:27:30.294Z,6.07
2018-08-28T10:30:04.813Z,6.00
2018-08-28T10:32:39.367Z,7.10
2018-08-28T10:35:13.987Z,6.53
2018-08-28T10:37:48.587Z,6.47
2018-08-28T10:40:23.322Z,6.33
2018-08-28T10:42:58.731Z,6.30
2018-08-28T10:45:33.337Z,5.80
2018-08-28T10:48:08.183Z,6.33
2018-08-28T10:50:42.849Z,5.97
2018-08-28T10:53:17.514Z,6.37
2018-08-28T10:55:52.157Z,5.93
2018-08-28T10:58:26.903Z,6.67
2018-08-28T11:01:01.418Z,6.90
2018-08-28T11:03:35.980Z,6.77
2018-08-28T11:06:10.661Z,6.07
2018-08-28T11:08:45.480Z,6.43
2018-08-28T11:11:20.049Z,5.97
2018-08-28T11:13:54.744Z,6.10
2018-08-28T11:16:29.305Z,7.00
2018-08-28T11:19:03.977Z,6.37
2018-08-28T11:21:38.477Z,6.07
2018-08-28T11:24:13.056Z,6.60
2018-08-28T11:26:47.498Z,6.83
2018-08-28T11:29:21.983Z,6.83
2018-08-28T11:31:56.610Z,6.63
2018-08-28T11:34:31.541Z,6.87
2018-08-28T11:37:18.829Z,6.80
2018-08-28T11:39:53.322Z,6.40
2018-08-28T11:42:27.928Z,6.50
2018-08-28T11:45:02.477Z,6.37
2018-08-28T11:47:37.102Z,7.17
2018-08-28T11:50:11.694Z,6.87
2018-08-28T11:52:46.401Z,6.87
2018-08-28T11:55:20.876Z,6.70
2018-08-28T11:57:55.549Z,7.27
2018-08-28T12:00:29.957Z,6.57
2018-08-28T12:03:04.609Z,6.90
2018-08-28T12:05:39.236Z,7.37
2018-08-28T12:08:13.785Z,7.10
2018-08-28T12:10:48.248Z,6.53
2018-08-28T12:13:22.858Z,6.60
2018-08-28T12:15:57.965Z,6.97
2018-08-28T12:18:32.564Z,6.63
2018-08-28T12:21:07.232Z,6.63
2018-08-28T12:23:42.114Z,7.00
2018-08-28T12:26:16.701Z,6.23
2018-08-28T12:28:51.305Z,7.27
2018-08-28T12:31:25.931Z,7.03
2018-08-28T12:34:00.712Z,6.47
2018-08-28T12:36:35.345Z,7.67
2018-08-28T12:39:10.011Z,7.70
2018-08-28T12:41:44.623Z,7.30
2018-08-28T12:44:19.235Z,6.43
2018-08-28T12:46:54.198Z,7.53
2018-08-28T12:49:28.637Z,7.00
2018-08-28T12:52:03.625Z,6.97
2018-08-28T12:54:38.060Z,6.67
2018-08-28T12:57:12.537Z,7.57
2018-08-28T12:59:47.027Z,6.87
2018-08-28T13:02:22.125Z,6.73
2018-08-28T13:04:56.825Z,7.33
2018-08-28T13:07:31.521Z,6.70
2018-08-28T13:10:06.122Z,7.50
2018-08-28T13:12:40.757Z,6.57
2018-08-28T13:15:15.338Z,7.20
2018-08-28T13:17:50.013Z,7.47
2018-08-28T13:20:24.666Z,7.57
2018-08-28T13:22:59.181Z,6.87
2018-08-28T13:25:33.939Z,7.57
2018-08-28T13:28:08.161Z,7.17
2018-08-28T13:30:42.684Z,7.00
2018-08-28T13:33:17.318Z,7.30
2018-08-28T13:35:52.257Z,7.57
2018-08-28T13:38:26.877Z,7.53
2018-08-28T13:41:01.329Z,8.63
2018-08-28T13:43:35.985Z,6.97
2018-08-28T13:46:10.462Z,6.60
2018-08-28T13:48:44.879Z,7.10
2018-08-28T13:51:19.685Z,6.77
2018-08-28T13:53:54.283Z,7.30
2018-08-28T13:56:28.683Z,7.23
2018-08-28T13:59:03.423Z,6.60
2018-08-28T14:01:38.099Z,7.27
2018-08-28T14:04:12.687Z,7.03
2018-08-28T14:06:50.093Z,7.57
2018-08-28T14:09:24.719Z,7.30
2018-08-28T14:12:04.949Z,7.27
2018-08-28T14:14:39.462Z,7.00
2018-08-28T14:17:14.149Z,7.20
2018-08-28T14:19:48.718Z,7.10
2018-08-28T14:22:23.557Z,7.10
2018-08-28T14:24:58.157Z,6.30
2018-08-28T14:27:32.723Z,7.33
2018-08-28T14:30:07.771Z,6.60
2018-08-28T14:32:42.217Z,6.47
2018-08-28T14:35:16.976Z,6.90
2018-08-28T14:37:51.485Z,6.83
2018-08-28T14:40:26.152Z,6.97
2018-08-28T14:43:00.770Z,6.70
2018-08-28T14:45:35.513Z,6.93
2018-08-28T14:48:10.257Z,7.20
2018-08-28T14:50:44.864Z,6.13
2018-08-28T14:53:19.532Z,6.47
2018-08-28T14:55:54.163Z,6.50
2018-08-28T14:58:28.860Z,6.60
2018-08-28T15:01:03.358Z,6.63
2018-08-28T15:04:02.560Z,6.83
2018-08-28T15:06:36.981Z,6.70
2018-08-28T15:09:11.461Z,6.60
2018-08-28T15:11:46.159Z,6.00
2018-08-28T15:14:20.698Z,6.60
2018-08-28T15:16:55.322Z,6.33
2018-08-28T15:19:29.926Z,5.97
2018-08-28T15:22:04.596Z,5.20
2018-08-28T15:24:39.106Z,5.73
2018-08-28T15:27:13.782Z,5.77
2018-08-28T15:29:48.326Z,6.00
2018-08-28T15:32:22.873Z,5.73
2018-08-28T15:34:58.079Z,5.23
2018-08-28T15:37:32.569Z,6.10
2018-08-28T15:40:07.069Z,6.20
2018-08-28T15:42:41.672Z,5.47
2018-08-28T15:45:16.583Z,5.63
2018-08-28T15:47:51.193Z,6.23
2018-08-28T15:50:25.810Z,5.60
2018-08-28T15:53:00.313Z,5.87
2018-08-28T15:55:35.114Z,5.70
2018-08-28T15:58:09.566Z,5.43
2018-08-28T16:00:44.173Z,5.03
2018-08-28T16:03:18.732Z,5.40
2018-08-28T16:05:53.367Z,5.10
2018-08-28T16:08:27.841Z,5.30
2018-08-28T16:11:02.324Z,5.07
2018-08-28T16:13:36.879Z,5.03
2018-08-28T16:16:11.398Z,5.47
2018-08-28T16:18:45.949Z,5.50
2018-08-28T16:21:20.645Z,4.87
2018-08-28T16:23:55.241Z,4.77
2018-08-28T16:26:29.825Z,4.90
2018-08-28T16:29:04.299Z,5.10
2018-08-28T16:31:40.632Z,5.47
2018-08-28T16:34:38.366Z,5.47
2018-08-28T16:37:13.048Z,5.93
2018-08-28T16:39:47.562Z,5.53
2018-08-28T16:42:22.170Z,5.17
2018-08-28T16:44:56.777Z,5.90
2018-08-28T16:47:31.330Z,5.63
2018-08-28T16:50:06.078Z,5.20
2018-08-28T16:52:40.790Z,5.23
2018-08-28T16:55:15.406Z,5.53
2018-08-28T16:57:50.126Z,5.30
2018-08-28T17:00:24.773Z,5.50
2018-08-28T17:02:59.479Z,5.83
2018-08-28T17:05:36.216Z,6.03
2018-08-28T17:08:21.296Z,5.97
2018-08-28T17:10:55.977Z,5.60
2018-08-28T17:13:30.589Z,5.23
2018-08-28T17:16:05.394Z,5.87
2018-08-28T17:18:39.908Z,4.80
2018-08-28T17:21:14.571Z,5.77
2018-08-28T17:23:49.111Z,5.90
2018-08-28T17:26:23.672Z,5.30
2018-08-28T17:28:58.611Z,5.93
2018-08-28T17:31:33.250Z,5.97
2018-08-28T17:34:07.810Z,5.50
2018-08-28T17:36:42.417Z,5.47
2018-08-28T17:39:16.951Z,6.10
2018-08-28T17:41:51.585Z,5.57
2018-08-28T17:47:25.518Z,5.53
2018-08-28T17:50:00.202Z,6.07
2018-08-28T17:52:34.828Z,5.47
2018-08-28T17:55:09.416Z,5.67
2018-08-28T17:57:44.024Z,5.90
2018-08-28T18:00:18.541Z,5.97
2018-08-28T18:02:53.096Z,6.17
2018-08-28T18:05:27.786Z,6.20
2018-08-28T18:08:02.555Z,5.53
2018-08-28T18:10:37.258Z,6.03
2018-08-28T18:13:18.549Z,6.70
2018-08-28T18:15:53.146Z,6.00
2018-08-28T18:18:27.660Z,6.30
2018-08-28T18:21:02.272Z,5.63
2018-08-28T18:23:36.822Z,5.97
2018-08-28T18:26:11.569Z,5.80
2018-08-28T18:28:46.356Z,5.60
2018-08-28T18:31:21.067Z,6.07
2018-08-28T18:33:56.025Z,5.43
2018-08-28T18:36:30.815Z,5.70
2018-08-28T18:39:06.719Z,5.27
2018-08-28T18:41:41.178Z,5.67
2018-08-28T18:44:15.813Z,6.13
2018-08-28T18:46:50.475Z,6.20
2018-08-28T18:49:25.120Z,6.67
2018-08-28T18:52:00.067Z,6.57
2018-08-28T18:54:34.731Z,5.40
2018-08-28T18:57:09.425Z,5.97
2018-08-28T18:59:43.980Z,6.20
2018-08-28T19:02:18.786Z,5.83
2018-08-28T19:04:53.461Z,5.70
2018-08-28T19:07:28.156Z,6.10
2018-08-28T19:10:14.892Z,5.67
2018-08-28T19:12:49.482Z,6.40
2018-08-28T19:15:24.070Z,5.87
2018-08-28T19:17:58.683Z,6.13
2018-08-28T19:20:33.602Z,6.63
2018-08-28T19:23:08.721Z,5.50
2018-08-28T19:25:43.356Z,5.77
2018-08-28T19:28:17.857Z,6.00
2018-08-28T19:30:52.636Z,6.47
2018-08-28T19:33:27.149Z,6.03
2018-08-28T19:36:01.899Z,6.50
2018-08-28T19:38:36.675Z,5.97
2018-08-28T19:41:11.285Z,6.50
2018-08-28T19:43:53.744Z,6.93
2018-08-28T19:46:28.605Z,6.03
2018-08-28T19:49:03.161Z,6.70
2018-08-28T19:51:37.938Z,6.57
2018-08-28T19:54:12.532Z,5.87
2018-08-28T19:56:47.279Z,5.70
2018-08-28T19:59:21.862Z,5.50
2018-08-28T20:01:56.603Z,5.10
2018-08-28T20:04:31.536Z,5.20
2018-08-28T20:07:06.045Z,5.20
2018-08-28T20:09:40.546Z,5.33
2018-08-28T20:12:15.605Z,5.30
2018-08-28T20:14:50.183Z,5.03
2018-08-28T20:17:24.905Z,5.10
2018-08-28T20:19:59.740Z,4.80
2018-08-28T20:22:34.352Z,5.57
2018-08-28T20:25:08.994Z,4.97
2018-08-28T20:27:43.539Z,4.93
2018-08-28T20:30:18.206Z,4.63
2018-08-28T20:32:52.757Z,5.20
2018-08-28T20:35:27.283Z,4.87
2018-08-28T20:38:01.901Z,5.03
2018-08-28T20:40:36.434Z,4.87
2018-08-28T20:43:11.029Z,5.50
2018-08-28T20:45:45.850Z,4.97
2018-08-28T20:48:33.347Z,4.97
2018-08-28T20:51:07.997Z,5.03
2018-08-28T20:53:42.658Z,5.00
2018-08-28T20:56:17.255Z,5.23
2018-08-28T20:58:51.861Z,4.87
2018-08-28T21:01:26.427Z,5.17
2018-08-28T21:04:00.909Z,5.00
2018-08-28T21:06:35.609Z,5.60
2018-08-28T21:09:10.301Z,5.10
2018-08-28T21:11:44.857Z,4.77
2018-08-28T21:14:19.504Z,5.57
2018-08-28T21:16:54.073Z,5.33
2018-08-28T21:19:28.558Z,5.27
2018-08-28T21:22:03.183Z,6.00
2018-08-28T21:24:37.803Z,5.40
2018-08-28T21:27:12.553Z,5.97
2018-08-28T21:29:47.437Z,5.40
2018-08-28T21:32:22.191Z,5.77
2018-08-28T21:34:56.745Z,5.43
2018-08-28T21:37:31.873Z,5.67
2018-08-28T21:40:06.756Z,5.87
2018-08-28T21:42:41.393Z,6.07
2018-08-28T21:45:16.192Z,6.47
2018-08-28T21:47:50.860Z,5.57
2018-08-28T21:50:25.667Z,7.03
2018-08-28T21:53:00.353Z,6.10
2018-08-28T21:55:34.890Z,6.60
2018-08-28T21:58:09.541Z,5.87
2018-08-28T22:00:44.146Z,5.83
2018-08-28T22:03:18.764Z,6.00
2018-08-28T22:05:53.397Z,6.53
2018-08-28T22:08:27.905Z,6.00
2018-08-28T22:11:02.331Z,6.10
2018-08-28T22:13:37.081Z,6.60
2018-08-28T22:16:11.657Z,6.03
2018-08-28T22:18:46.204Z,5.83
2018-08-28T22:21:20.713Z,6.23
2018-08-28T22:23:55.413Z,5.67
2018-08-28T22:26:30.191Z,7.00
2018-08-28T22:29:04.876Z,6.10
2018-08-28T22:31:39.522Z,5.93
2018-08-28T22:34:14.046Z,5.10
2018-08-28T22:36:48.484Z,6.03
2018-08-28T22:39:23.388Z,6.13
2018-08-28T22:41:57.961Z,5.67
2018-08-28T22:44:32.502Z,5.77
2018-08-28T22:47:06.977Z,5.57
2018-08-28T22:49:41.810Z,6.10
2018-08-28T22:52:16.644Z,5.50
2018-08-28T22:54:51.135Z,5.53
2018-08-28T22:57:25.742Z,5.93
2018-08-28T23:00:00.215Z,5.97
2018-08-28T23:02:34.768Z,5.53
2018-08-28T23:05:09.405Z,5.90
2018-08-28T23:07:44.051Z,5.47
2018-08-28T23:10:18.673Z,5.43
2018-08-28T23:12:53.260Z,5.80
2018-08-28T23:15:27.745Z,5.70
2018-08-28T23:18:02.357Z,5.50
2018-08-28T23:20:36.785Z,5.73
2018-08-28T23:23:11.213Z,5.20
2018-08-28T23:25:46.264Z,6.20
2018-08-28T23:28:20.743Z,5.47
2018-08-28T23:30:55.755Z,5.50
2018-08-28T23:33:30.355Z,5.50
2018-08-28T23:36:04.850Z,5.30
2018-08-28T23:38:39.388Z,5.22
2018-08-28T23:41:14.429Z,5.00
2018-08-28T23:43:49.084Z,5.50
2018-08-28T23:46:23.657Z,5.17
2018-08-28T23:48:58.276Z,6.10
2018-08-28T23:51:33.025Z,5.50
2018-08-28T23:54:07.477Z,5.33
2018-08-28T23:56:42.220Z,5.27
2018-08-28T23:59:16.704Z,6.17
